createdAt,value
2022-08-26T00:01:44.820Z,11.38
2022-08-26T00:04:12.601Z,9.13
2022-08-26T00:06:42.607Z,9.32
2022-08-26T00:09:13.673Z,6.93
2022-08-26T00:11:43.334Z,8.43
2022-08-26T00:14:10.315Z,7.93
2022-08-26T00:16:37.518Z,6.75
2022-08-26T00:19:07.959Z,6.53
2022-08-26T00:21:35.099Z,10.38
2022-08-26T00:24:04.555Z,12.05
2022-08-26T00:26:33.704Z,6.90
2022-08-26T00:29:00.693Z,8.40
2022-08-26T00:31:27.399Z,10.95
2022-08-26T00:33:54.187Z,10.07
2022-08-26T00:36:23.022Z,7.25
2022-08-26T00:38:50.224Z,10.63
2022-08-26T00:41:19.719Z,7.38
2022-08-26T00:43:47.942Z,7.53
2022-08-26T00:46:22.077Z,10.98
2022-08-26T00:48:53.720Z,8.32
2022-08-26T00:51:24.616Z,7.38
2022-08-26T00:54:07.363Z,8.27
2022-08-26T00:56:47.059Z,9.65
2022-08-26T00:59:17.161Z,11.02
2022-08-26T01:01:46.077Z,7.38
2022-08-26T01:04:17.353Z,13.60
2022-08-26T01:06:45.375Z,7.90
2022-08-26T01:09:12.501Z,11.25
2022-08-26T01:11:39.631Z,9.55
2022-08-26T01:14:09.087Z,8.65
2022-08-26T01:16:36.556Z,7.40
2022-08-26T01:19:14.279Z,7.88
2022-08-26T01:21:48.104Z,8.68
2022-08-26T01:24:15.703Z,9.43
2022-08-26T01:26:44.808Z,7.78
2022-08-26T01:29:16.846Z,8.57
2022-08-26T01:31:48.918Z,11.93
2022-08-26T01:34:36.159Z,12.80
2022-08-26T01:37:15.978Z,11.90
2022-08-26T01:39:47.535Z,13.02
2022-08-26T01:42:16.796Z,9.77
2022-08-26T01:44:52.087Z,11.95
2022-08-26T01:47:21.154Z,10.30
2022-08-26T01:49:51.576Z,10.13
2022-08-26T01:52:28.065Z,8.90
2022-08-26T01:54:58.592Z,10.52
2022-08-26T01:57:26.596Z,11.30
2022-08-26T01:59:58.578Z,7.53
2022-08-26T02:02:25.960Z,8.55
2022-08-26T02:05:00.392Z,12.10
2022-08-26T02:09:55.273Z,10.07
2022-08-26T02:12:22.341Z,8.68
2022-08-26T02:14:54.305Z,10.60
2022-08-26T02:17:26.264Z,11.32
2022-08-26T02:19:53.835Z,11.52
2022-08-26T02:22:24.604Z,10.52
2022-08-26T02:24:53.450Z,10.65
2022-08-26T02:27:25.766Z,9.48
2022-08-26T02:30:06.831Z,8.00
2022-08-26T02:32:33.795Z,9.73
2022-08-26T02:35:02.123Z,10.05
2022-08-26T02:37:32.464Z,9.73
2022-08-26T02:40:01.649Z,8.55
2022-08-26T02:42:28.492Z,7.78
2022-08-26T02:44:55.223Z,10.85
2022-08-26T02:47:24.811Z,9.63
2022-08-26T02:49:52.388Z,8.20
2022-08-26T02:52:21.647Z,10.35
2022-08-26T02:54:49.623Z,8.57
2022-08-26T02:57:16.922Z,8.13
2022-08-26T02:59:43.921Z,7.10
2022-08-26T03:02:12.377Z,9.90
2022-08-26T03:04:40.979Z,10.40
2022-08-26T03:07:25.293Z,10.38
2022-08-26T03:09:53.029Z,9.77
2022-08-26T03:12:20.380Z,10.50
2022-08-26T03:14:48.144Z,8.77
2022-08-26T03:17:15.939Z,9.10
2022-08-26T03:19:43.107Z,10.52
2022-08-26T03:22:10.993Z,10.50
2022-08-26T03:24:37.755Z,8.50
2022-08-26T03:27:05.782Z,9.00
2022-08-26T03:29:52.464Z,11.57
2022-08-26T03:32:20.886Z,6.57
2022-08-26T03:34:48.146Z,7.43
2022-08-26T03:37:15.204Z,8.05
2022-08-26T03:39:41.883Z,6.80
2022-08-26T03:42:09.191Z,7.93
2022-08-26T03:44:41.952Z,8.70
2022-08-26T03:47:09.438Z,10.10
2022-08-26T03:49:36.446Z,10.00
2022-08-26T03:52:04.831Z,8.65
2022-08-26T03:54:33.270Z,8.40
2022-08-26T03:57:00.377Z,7.03
2022-08-26T03:59:27.423Z,9.73
2022-08-26T04:01:54.904Z,8.15
2022-08-26T04:04:22.747Z,9.70
2022-08-26T04:06:57.279Z,6.47
2022-08-26T04:09:25.180Z,7.38
2022-08-26T04:11:52.221Z,6.72
2022-08-26T04:14:23.648Z,8.00
2022-08-26T04:16:51.984Z,6.90
2022-08-26T04:19:20.154Z,6.85
2022-08-26T04:21:48.452Z,7.07
2022-08-26T04:24:16.351Z,7.65
2022-08-26T04:26:44.531Z,6.80
2022-08-26T04:29:18.219Z,6.63
2022-08-26T04:31:45.588Z,8.88
2022-08-26T04:34:14.035Z,6.75
2022-08-26T04:36:41.927Z,11.95
2022-08-26T04:39:12.168Z,10.43
2022-08-26T04:41:39.421Z,8.77
2022-08-26T04:44:07.769Z,7.38
2022-08-26T04:46:35.349Z,6.20
2022-08-26T04:49:08.291Z,9.35
2022-08-26T04:51:39.065Z,7.53
2022-08-26T04:54:07.204Z,12.32
2022-08-26T04:56:37.278Z,9.07
2022-08-26T04:59:07.209Z,6.13
2022-08-26T05:01:38.779Z,8.40
2022-08-26T05:04:08.168Z,7.15
2022-08-26T05:06:37.203Z,7.13
2022-08-26T05:09:04.353Z,11.35
2022-08-26T05:11:31.366Z,8.07
2022-08-26T05:14:02.111Z,7.57
2022-08-26T05:16:30.287Z,6.85
2022-08-26T05:18:57.615Z,6.63
2022-08-26T05:21:26.515Z,7.05
2022-08-26T05:23:55.118Z,8.98
2022-08-26T05:26:24.408Z,10.98
2022-08-26T05:28:54.794Z,10.45
2022-08-26T05:31:31.684Z,8.32
2022-08-26T05:33:59.725Z,7.20
2022-08-26T05:36:33.436Z,8.50
2022-08-26T05:39:03.088Z,8.98
2022-08-26T05:41:34.259Z,7.63
2022-08-26T05:44:05.892Z,8.90
2022-08-26T05:46:33.517Z,9.25
2022-08-26T05:49:01.603Z,8.48
2022-08-26T05:51:30.427Z,8.20
2022-08-26T05:53:58.291Z,8.30
2022-08-26T05:56:27.365Z,8.48
2022-08-26T05:58:55.709Z,8.63
2022-08-26T06:01:26.004Z,8.30
2022-08-26T06:03:57.048Z,11.43
2022-08-26T06:06:32.289Z,10.68
2022-08-26T06:09:01.226Z,11.07
2022-08-26T06:11:32.350Z,11.63
2022-08-26T06:14:03.944Z,10.32
2022-08-26T06:16:34.717Z,9.32
2022-08-26T06:19:03.458Z,11.95
2022-08-26T06:21:39.290Z,9.55
2022-08-26T06:24:27.835Z,11.55
2022-08-26T06:26:58.536Z,10.38
2022-08-26T06:29:27.211Z,10.57
2022-08-26T06:31:56.246Z,11.80
2022-08-26T06:34:23.645Z,19.08
2022-08-26T06:36:58.841Z,14.80
2022-08-26T06:39:25.584Z,16.63
2022-08-26T06:41:52.351Z,12.90
2022-08-26T06:44:19.759Z,11.52
2022-08-26T06:46:50.292Z,16.98
2022-08-26T06:49:18.072Z,17.10
2022-08-26T06:51:47.144Z,10.85
2022-08-26T06:54:15.720Z,12.05
2022-08-26T06:56:43.774Z,12.30
2022-08-26T06:59:11.935Z,11.15
2022-08-26T07:01:44.925Z,14.38
2022-08-26T07:04:14.612Z,13.23
2022-08-26T07:06:48.785Z,16.25
2022-08-26T07:09:17.160Z,10.65
2022-08-26T07:11:44.669Z,12.02
2022-08-26T07:14:12.234Z,10.65
2022-08-26T07:16:39.602Z,12.73
2022-08-26T07:19:10.789Z,13.70
2022-08-26T07:21:40.394Z,12.43
2022-08-26T07:24:08.755Z,14.23
2022-08-26T07:26:38.647Z,15.15
2022-08-26T07:29:06.858Z,18.08
2022-08-26T07:31:39.567Z,14.98
2022-08-26T07:34:10.855Z,11.52
2022-08-26T07:36:37.630Z,11.57
2022-08-26T07:39:05.964Z,11.43
2022-08-26T07:41:33.544Z,13.00
2022-08-26T07:44:00.872Z,10.45
2022-08-26T07:46:30.210Z,15.02
2022-08-26T07:48:58.022Z,13.88
2022-08-26T07:51:25.387Z,14.38
2022-08-26T07:53:53.076Z,15.05
2022-08-26T07:56:23.440Z,10.85
2022-08-26T07:58:52.182Z,12.98
2022-08-26T08:01:21.140Z,10.95
2022-08-26T08:03:51.296Z,15.93
2022-08-26T08:06:27.301Z,11.25
2022-08-26T08:08:55.928Z,12.60
2022-08-26T08:11:22.879Z,12.40
2022-08-26T08:13:56.013Z,15.95
2022-08-26T08:16:32.085Z,12.10
2022-08-26T08:18:59.503Z,16.52
2022-08-26T08:21:27.709Z,13.57
2022-08-26T08:23:57.234Z,12.20
2022-08-26T08:26:26.105Z,18.48
2022-08-26T08:28:57.555Z,13.73
2022-08-26T08:31:56.240Z,12.73
2022-08-26T08:34:18.235Z,19.42
2022-08-26T08:36:46.267Z,12.20
2022-08-26T08:39:14.001Z,21.00
2022-08-26T08:42:04.505Z,11.60
2022-08-26T08:44:32.916Z,15.88
2022-08-26T08:47:04.565Z,11.95
2022-08-26T08:49:33.589Z,18.17
2022-08-26T08:52:12.022Z,12.30
2022-08-26T08:54:38.775Z,20.17
2022-08-26T08:57:12.785Z,15.77
2022-08-26T08:59:53.292Z,8.43
2022-08-26T09:02:31.325Z,17.40
2022-08-26T09:05:09.018Z,14.20
2022-08-26T09:07:57.209Z,13.90
2022-08-26T09:10:30.823Z,12.57
2022-08-26T09:12:58.191Z,10.02
2022-08-26T09:15:45.645Z,9.88
2022-08-26T09:18:50.048Z,10.30
2022-08-26T09:21:18.846Z,10.23
2022-08-26T09:23:49.549Z,11.07
2022-08-26T09:26:31.262Z,12.95
2022-08-26T09:29:08.714Z,10.23
2022-08-26T09:31:37.902Z,11.73
2022-08-26T09:34:24.050Z,10.18
2022-08-26T09:36:59.092Z,9.85
2022-08-26T09:39:37.815Z,7.13
2022-08-26T09:42:08.138Z,9.77
2022-08-26T09:45:03.753Z,11.82
2022-08-26T09:47:45.662Z,10.10
2022-08-26T09:50:30.753Z,10.75
2022-08-26T09:53:21.094Z,8.68
2022-08-26T09:56:11.437Z,8.40
2022-08-26T09:58:44.083Z,9.20
2022-08-26T10:01:26.351Z,7.18
2022-08-26T10:03:57.112Z,6.43
2022-08-26T10:06:26.624Z,6.65
2022-08-26T10:08:58.956Z,8.40
2022-08-26T10:11:45.237Z,7.93
2022-08-26T10:14:26.469Z,5.95
2022-08-26T10:17:06.869Z,6.47
2022-08-26T10:19:57.068Z,7.03
2022-08-26T10:22:24.340Z,10.57
2022-08-26T10:24:55.838Z,9.07
2022-08-26T10:27:34.480Z,7.43
2022-08-26T10:30:10.705Z,7.25
2022-08-26T10:32:41.691Z,5.68
2022-08-26T10:35:12.159Z,8.38
2022-08-26T10:37:48.368Z,8.48
2022-08-26T10:40:23.219Z,6.70
2022-08-26T10:43:07.108Z,6.00
2022-08-26T10:45:42.659Z,9.88
2022-08-26T10:48:21.384Z,5.18
2022-08-26T10:50:49.344Z,7.20
2022-08-26T10:53:42.509Z,4.45
2022-08-26T10:59:20.451Z,4.50
2022-08-26T11:01:55.281Z,6.25
2022-08-26T11:04:35.481Z,4.00
2022-08-26T11:07:46.048Z,5.90
2022-08-26T11:10:18.947Z,6.03
2022-08-26T11:12:49.443Z,6.30
2022-08-26T11:15:26.725Z,4.07
2022-08-26T11:17:58.466Z,6.03
2022-08-26T11:20:44.126Z,3.53
2022-08-26T11:23:14.379Z,4.60
2022-08-26T11:25:57.042Z,4.30
2022-08-26T11:28:37.584Z,3.30
2022-08-26T11:31:10.007Z,5.93
2022-08-26T11:34:00.658Z,4.28
2022-08-26T11:36:45.805Z,6.03
2022-08-26T11:39:18.241Z,7.18
2022-08-26T11:41:47.050Z,4.60
2022-08-26T11:44:19.408Z,4.53
2022-08-26T11:46:59.564Z,4.10
2022-08-26T11:49:31.824Z,7.07
2022-08-26T11:52:09.321Z,7.35
2022-08-26T11:54:36.074Z,7.53
2022-08-26T11:57:09.264Z,8.75
2022-08-26T11:59:39.728Z,4.97
2022-08-26T12:02:15.473Z,8.40
2022-08-26T12:04:46.349Z,5.80
2022-08-26T12:07:13.404Z,7.75
2022-08-26T12:09:57.600Z,5.68
2022-08-26T12:12:34.566Z,7.53
2022-08-26T12:15:19.742Z,3.78
2022-08-26T12:20:30.747Z,3.50
2022-08-26T12:23:00.070Z,3.00
2022-08-26T12:25:28.057Z,2.92
2022-08-26T12:28:05.437Z,8.50
2022-08-26T12:30:32.225Z,3.13
2022-08-26T12:33:23.053Z,3.58
2022-08-26T12:35:54.337Z,3.35
2022-08-26T12:38:25.494Z,3.10
2022-08-26T12:40:52.489Z,2.90
2022-08-26T12:43:40.417Z,3.72
2022-08-26T12:46:11.255Z,7.93
2022-08-26T12:48:40.862Z,4.07
2022-08-26T12:51:14.955Z,5.13
2022-08-26T12:53:44.175Z,5.82
2022-08-26T12:56:27.904Z,5.15
2022-08-26T12:59:07.330Z,4.13
2022-08-26T13:01:42.367Z,4.68
2022-08-26T13:04:40.660Z,3.30
2022-08-26T13:07:26.712Z,2.90
2022-08-26T13:09:56.043Z,4.03
2022-08-26T13:12:34.929Z,3.95
2022-08-26T13:15:02.272Z,3.35
2022-08-26T13:17:30.138Z,4.97
2022-08-26T13:20:03.236Z,3.42
2022-08-26T13:22:30.616Z,5.37
2022-08-26T13:24:58.043Z,3.40
2022-08-26T13:27:27.128Z,4.82
2022-08-26T13:29:54.929Z,3.22
2022-08-26T13:32:22.592Z,4.88
2022-08-26T13:34:56.685Z,5.13
2022-08-26T13:37:34.744Z,4.05
2022-08-26T13:40:04.453Z,3.60
2022-08-26T13:42:31.307Z,7.45
2022-08-26T13:44:58.863Z,4.05
2022-08-26T13:47:26.100Z,5.45
2022-08-26T13:49:55.149Z,5.10
2022-08-26T13:52:29.137Z,3.28
2022-08-26T13:54:58.070Z,7.75
2022-08-26T13:57:27.995Z,6.47
2022-08-26T13:59:56.602Z,9.32
2022-08-26T14:02:23.631Z,4.35
2022-08-26T14:04:50.393Z,4.70
2022-08-26T14:07:17.159Z,5.18
2022-08-26T14:09:43.868Z,5.95
2022-08-26T14:12:10.879Z,3.92
2022-08-26T14:14:37.615Z,9.90
2022-08-26T14:17:04.366Z,5.55
2022-08-26T14:19:31.928Z,6.53
2022-08-26T14:22:00.776Z,3.58
2022-08-26T14:24:28.771Z,5.30
2022-08-26T14:26:55.460Z,6.22
2022-08-26T14:29:22.212Z,3.47
2022-08-26T14:31:48.970Z,4.85
2022-08-26T14:34:15.683Z,3.60
2022-08-26T14:36:42.437Z,3.50
2022-08-26T14:39:12.477Z,3.08
2022-08-26T14:41:54.191Z,4.88
2022-08-26T14:44:24.422Z,6.85
2022-08-26T14:46:52.906Z,6.57
2022-08-26T14:49:22.326Z,4.90
2022-08-26T14:51:49.528Z,4.30
2022-08-26T14:54:17.658Z,3.47
2022-08-26T14:56:54.040Z,3.95
2022-08-26T14:59:26.556Z,4.07
2022-08-26T15:01:54.665Z,8.30
2022-08-26T15:04:22.839Z,4.95
2022-08-26T15:06:50.830Z,6.75
2022-08-26T15:09:17.692Z,6.50
2022-08-26T15:11:44.975Z,5.90
2022-08-26T15:14:19.516Z,8.50
2022-08-26T15:16:48.617Z,7.45
2022-08-26T15:19:15.945Z,11.05
2022-08-26T15:21:45.239Z,5.18
2022-08-26T15:24:12.935Z,6.95
2022-08-26T15:26:39.790Z,6.95
2022-08-26T15:29:06.621Z,16.45
2022-08-26T15:31:34.089Z,9.38
2022-08-26T15:34:04.854Z,6.53
2022-08-26T15:36:32.895Z,6.95
2022-08-26T15:39:00.847Z,3.40
2022-08-26T15:41:29.070Z,5.25
2022-08-26T15:43:56.643Z,3.72
2022-08-26T15:46:24.234Z,3.13
2022-08-26T15:48:51.839Z,8.05
2022-08-26T15:51:27.769Z,3.30
2022-08-26T15:53:58.573Z,5.22
2022-08-26T15:56:27.298Z,4.05
2022-08-26T15:58:56.333Z,4.05
2022-08-26T16:01:27.451Z,3.22
2022-08-26T16:03:55.358Z,12.75
2022-08-26T16:06:27.528Z,7.43
2022-08-26T16:08:55.459Z,5.88
2022-08-26T16:11:23.270Z,6.13
2022-08-26T16:13:50.778Z,5.85
2022-08-26T16:16:17.880Z,7.07
2022-08-26T16:18:45.260Z,7.63
2022-08-26T16:21:16.599Z,4.75
2022-08-26T16:23:45.360Z,9.27
2022-08-26T16:26:17.864Z,10.00
2022-08-26T16:28:44.776Z,3.63
2022-08-26T16:31:12.293Z,7.32
2022-08-26T16:33:39.099Z,8.60
2022-08-26T16:36:06.892Z,5.18
2022-08-26T16:38:34.318Z,3.20
2022-08-26T16:41:01.870Z,8.07
2022-08-26T16:43:29.195Z,3.40
2022-08-26T16:45:56.398Z,3.10
2022-08-26T16:48:23.682Z,3.45
2022-08-26T16:50:51.211Z,3.20
2022-08-26T16:53:18.746Z,3.60
2022-08-26T16:55:47.597Z,3.67
2022-08-26T16:58:15.136Z,4.72
2022-08-26T17:00:41.880Z,3.22
2022-08-26T17:03:08.822Z,5.70
2022-08-26T17:05:36.294Z,3.42
2022-08-26T17:08:04.629Z,3.08
2022-08-26T17:10:32.790Z,5.40
2022-08-26T17:13:00.095Z,3.50
2022-08-26T17:15:27.662Z,3.78
2022-08-26T17:17:54.988Z,2.90
2022-08-26T17:20:23.961Z,2.70
2022-08-26T17:22:52.724Z,3.22
2022-08-26T17:25:24.159Z,5.43
2022-08-26T17:27:51.163Z,4.00
2022-08-26T17:30:18.971Z,12.40
2022-08-26T17:32:46.280Z,5.70
2022-08-26T17:35:14.540Z,9.27
2022-08-26T17:37:41.821Z,5.55
2022-08-26T17:40:11.561Z,7.60
2022-08-26T17:42:39.646Z,4.90
2022-08-26T17:45:07.844Z,8.43
2022-08-26T17:47:34.894Z,10.23
2022-08-26T17:50:01.934Z,6.53
2022-08-26T17:52:30.399Z,8.10
2022-08-26T17:54:57.799Z,7.85
2022-08-26T17:57:25.927Z,10.50
2022-08-26T17:59:53.616Z,10.57
2022-08-26T18:02:21.146Z,8.65
2022-08-26T18:04:48.470Z,10.25
2022-08-26T18:07:15.671Z,10.55
2022-08-26T18:09:42.632Z,9.63
2022-08-26T18:12:09.918Z,6.78
2022-08-26T18:14:36.708Z,8.82
2022-08-26T18:17:04.273Z,5.05
2022-08-26T18:19:31.388Z,8.35
2022-08-26T18:21:58.831Z,7.10
2022-08-26T18:24:25.706Z,7.88
2022-08-26T18:26:52.486Z,6.03
2022-08-26T18:29:19.831Z,9.77
2022-08-26T18:31:46.732Z,5.03
2022-08-26T18:34:15.568Z,10.75
2022-08-26T18:36:43.750Z,18.08
2022-08-26T18:39:11.885Z,29.75
2022-08-26T18:41:45.113Z,18.08
2022-08-26T18:44:14.033Z,15.20
2022-08-26T18:46:41.270Z,29.08
2022-08-26T18:49:08.378Z,22.77
2022-08-26T18:51:35.503Z,16.88
2022-08-26T18:54:04.428Z,17.08
2022-08-26T18:56:32.198Z,20.45
2022-08-26T18:58:59.892Z,13.38
2022-08-26T19:01:28.317Z,18.80
2022-08-26T19:03:56.784Z,16.05
2022-08-26T19:06:24.688Z,17.40
2022-08-26T19:08:51.556Z,15.50
2022-08-26T19:11:32.624Z,12.93
2022-08-26T19:14:09.398Z,15.15
2022-08-26T19:16:37.316Z,14.07
2022-08-26T19:19:04.618Z,14.55
2022-08-26T19:21:33.454Z,19.30
2022-08-26T19:24:02.648Z,17.27
2022-08-26T19:26:30.070Z,15.20
2022-08-26T19:28:57.701Z,15.52
2022-08-26T19:31:28.454Z,13.95
2022-08-26T19:33:58.158Z,13.65
2022-08-26T19:36:26.611Z,14.20
2022-08-26T19:38:54.516Z,14.10
2022-08-26T19:41:36.454Z,13.82
2022-08-26T19:44:12.865Z,10.25
2022-08-26T19:46:40.084Z,12.52
2022-08-26T19:49:07.281Z,13.10
2022-08-26T19:51:35.671Z,14.02
2022-08-26T19:54:02.798Z,12.85
2022-08-26T19:56:29.664Z,11.07
2022-08-26T19:58:56.974Z,14.05
2022-08-26T20:01:39.279Z,12.55
2022-08-26T20:04:06.739Z,12.98
2022-08-26T20:06:33.418Z,12.90
2022-08-26T20:09:00.235Z,12.13
2022-08-26T20:11:40.320Z,13.10
2022-08-26T20:14:07.022Z,13.77
2022-08-26T20:16:33.837Z,11.75
2022-08-26T20:19:19.310Z,14.30
2022-08-26T20:21:46.681Z,10.05
2022-08-26T20:24:17.166Z,8.85
2022-08-26T20:26:45.385Z,13.45
2022-08-26T20:29:15.922Z,9.50
2022-08-26T20:31:44.150Z,9.10
2022-08-26T20:34:13.198Z,14.90
2022-08-26T20:36:41.268Z,11.10
2022-08-26T20:39:08.916Z,10.95
2022-08-26T20:41:35.685Z,10.82
2022-08-26T20:44:02.591Z,11.98
2022-08-26T20:46:29.505Z,8.70
2022-08-26T20:48:56.375Z,7.50
2022-08-26T20:51:24.971Z,10.20
2022-08-26T20:53:52.118Z,8.23
2022-08-26T20:56:26.510Z,8.02
2022-08-26T20:58:55.400Z,12.68
2022-08-26T21:01:25.035Z,9.10
2022-08-26T21:03:53.908Z,9.50
2022-08-26T21:06:20.850Z,8.10
2022-08-26T21:08:48.318Z,8.32
2022-08-26T21:11:17.193Z,10.65
2022-08-26T21:14:04.047Z,8.70
2022-08-26T21:16:31.468Z,8.57
2022-08-26T21:19:00.385Z,7.22
2022-08-26T21:21:27.537Z,9.68
2022-08-26T21:23:54.946Z,14.07
2022-08-26T21:26:22.594Z,11.50
2022-08-26T21:28:50.277Z,8.18
2022-08-26T21:31:19.949Z,8.27
2022-08-26T21:33:47.527Z,11.90
2022-08-26T21:36:15.022Z,8.50
2022-08-26T21:38:41.799Z,8.93
2022-08-26T21:41:14.268Z,9.82
2022-08-26T21:43:43.097Z,9.48
2022-08-26T21:46:14.571Z,9.60
2022-08-26T21:48:47.611Z,9.30
2022-08-26T21:51:18.611Z,9.27
2022-08-26T21:53:45.732Z,9.57
2022-08-26T21:56:15.182Z,8.52
2022-08-26T21:58:41.948Z,10.30
2022-08-26T22:01:11.243Z,12.52
2022-08-26T22:03:47.144Z,9.18
2022-08-26T22:06:18.606Z,9.60
2022-08-26T22:08:45.440Z,11.82
2022-08-26T22:11:12.737Z,10.02
2022-08-26T22:13:41.647Z,9.43
2022-08-26T22:16:09.548Z,11.95
2022-08-26T22:18:37.094Z,10.60
2022-08-26T22:21:09.558Z,10.23
2022-08-26T22:23:37.752Z,8.70
2022-08-26T22:26:06.396Z,9.35
2022-08-26T22:28:33.432Z,9.30
2022-08-26T22:31:01.379Z,10.02
2022-08-26T22:33:28.452Z,11.23
2022-08-26T22:35:55.689Z,10.95
2022-08-26T22:38:23.887Z,10.02
2022-08-26T22:40:56.432Z,8.15
2022-08-26T22:43:28.545Z,8.90
2022-08-26T22:45:56.078Z,7.97
2022-08-26T22:48:25.448Z,8.27
2022-08-26T22:50:58.373Z,8.68
2022-08-26T22:53:27.212Z,14.68
2022-08-26T22:55:54.393Z,9.95
2022-08-26T22:58:21.471Z,8.00
2022-08-26T23:00:57.600Z,8.95
2022-08-26T23:03:26.771Z,8.30
2022-08-26T23:05:55.437Z,9.30
2022-08-26T23:08:23.580Z,8.02
2022-08-26T23:10:51.892Z,11.77
2022-08-26T23:13:19.416Z,9.07
2022-08-26T23:15:46.407Z,8.93
2022-08-26T23:18:14.660Z,8.90
2022-08-26T23:20:41.844Z,11.43
2022-08-26T23:23:09.451Z,10.02
2022-08-26T23:25:37.212Z,11.38
2022-08-26T23:28:05.422Z,11.98
2022-08-26T23:30:34.450Z,11.15
2022-08-26T23:33:01.244Z,9.70
2022-08-26T23:35:28.692Z,9.43
2022-08-26T23:37:57.815Z,10.55
2022-08-26T23:40:36.286Z,8.35
2022-08-26T23:43:06.517Z,11.77
2022-08-26T23:45:34.682Z,8.73
2022-08-26T23:48:01.804Z,11.35
2022-08-26T23:50:49.592Z,9.88
2022-08-26T23:53:19.909Z,9.27
2022-08-26T23:55:49.145Z,9.23
2022-08-26T23:58:17.953Z,9.60
